createdAt,value
2018-01-24T00:01:11.097Z,101443.55
2018-01-24T00:03:37.869Z,101437.88
2018-01-24T00:06:04.588Z,101436.36
2018-01-24T00:08:31.346Z,101438.80
2018-01-24T00:10:57.149Z,101437.91
2018-01-24T00:13:23.938Z,101436.75
2018-01-24T00:15:50.541Z,101430.22
2018-01-24T00:18:17.298Z,101433.88
2018-01-24T00:20:43.069Z,101435.80
2018-01-24T00:23:09.661Z,101435.52
2018-01-24T00:25:36.348Z,101431.41
2018-01-24T00:28:03.089Z,101427.49
2018-01-24T00:30:28.897Z,101426.83
2018-01-24T00:32:54.674Z,101423.02
2018-01-24T00:35:20.473Z,101426.56
2018-01-24T00:37:46.245Z,101431.94
2018-01-24T00:40:12.089Z,101426.16
2018-01-24T00:42:37.860Z,101426.52
2018-01-24T00:45:04.642Z,101429.25
2018-01-24T00:47:30.408Z,101437.81
2018-01-24T00:49:56.173Z,101442.63
2018-01-24T00:52:21.965Z,101437.08
2018-01-24T00:54:47.740Z,101437.16
2018-01-24T00:57:13.512Z,101430.72
2018-01-24T00:59:40.260Z,101423.87
2018-01-24T01:02:06.077Z,101428.28
2018-01-24T01:04:31.845Z,101428.06
2018-01-24T01:06:57.625Z,101421.50
2018-01-24T01:09:23.404Z,101420.11
2018-01-24T01:11:49.177Z,101416.45
2018-01-24T01:14:15.905Z,101416.87
2018-01-24T01:16:42.682Z,101424.78
2018-01-24T01:19:09.285Z,101421.77
2018-01-24T01:21:35.062Z,101411.43
2018-01-24T01:24:00.838Z,101417.55
2018-01-24T01:26:26.614Z,101423.50
2018-01-24T01:28:52.381Z,101416.08
2018-01-24T01:31:19.047Z,101413.21
2018-01-24T01:33:44.829Z,101409.30
2018-01-24T01:36:10.615Z,101420.88
2018-01-24T01:38:36.389Z,101418.45
2018-01-24T01:41:03.080Z,101413.30
2018-01-24T01:43:29.878Z,101410.59
2018-01-24T01:45:55.648Z,101413.39
2018-01-24T01:48:27.550Z,101406.96
2018-01-24T01:50:53.477Z,101407.09
2018-01-24T01:53:20.319Z,101408.38
2018-01-24T01:55:46.094Z,101399.08
2018-01-24T01:58:11.865Z,101392.48
2018-01-24T02:00:37.662Z,101390.12
2018-01-24T02:03:03.476Z,101388.23
2018-01-24T02:05:29.298Z,101383.98
2018-01-24T02:07:55.138Z,101381.96
2018-01-24T02:10:20.913Z,101386.59
2018-01-24T02:12:46.906Z,101384.73
2018-01-24T02:15:12.713Z,101391.29
2018-01-24T02:17:38.492Z,101392.05
2018-01-24T02:20:04.334Z,101393.63
2018-01-24T02:22:30.106Z,101398.02
2018-01-24T02:24:55.930Z,101393.03
2018-01-24T02:27:21.709Z,101391.00
2018-01-24T02:29:47.482Z,101393.27
2018-01-24T02:32:13.269Z,101386.69
2018-01-24T02:34:39.061Z,101385.27
2018-01-24T02:37:04.874Z,101383.97
2018-01-24T02:39:30.646Z,101376.46
2018-01-24T02:41:56.462Z,101385.59
2018-01-24T02:44:22.229Z,101383.98
2018-01-24T02:46:48.045Z,101385.69
2018-01-24T02:49:13.820Z,101380.22
2018-01-24T02:51:39.642Z,101380.05
2018-01-24T02:54:05.423Z,101370.56
2018-01-24T02:56:31.202Z,101371.11
2018-01-24T02:58:56.981Z,101374.25
2018-01-24T03:01:22.795Z,101365.06
2018-01-24T03:03:48.565Z,101353.17
2018-01-24T03:06:14.378Z,101357.84
2018-01-24T03:08:40.149Z,101358.26
2018-01-24T03:11:05.924Z,101358.71
2018-01-24T03:13:31.820Z,101353.44
2018-01-24T03:15:57.593Z,101356.39
2018-01-24T03:18:23.368Z,101357.05
2018-01-24T03:20:49.138Z,101363.88
2018-01-24T03:23:14.919Z,101352.43
2018-01-24T03:25:40.694Z,101347.84
2018-01-24T03:28:06.465Z,101347.71
2018-01-24T03:30:32.288Z,101354.27
2018-01-24T03:32:58.074Z,101349.98
2018-01-24T03:35:23.849Z,101352.48
2018-01-24T03:37:49.625Z,101358.60
2018-01-24T03:40:15.403Z,101352.14
2018-01-24T03:42:41.209Z,101357.59
2018-01-24T03:45:06.994Z,101354.78
2018-01-24T03:47:32.806Z,101349.33
2018-01-24T03:49:58.573Z,101349.58
2018-01-24T03:52:24.349Z,101346.74
2018-01-24T03:54:50.134Z,101341.73
2018-01-24T03:57:15.958Z,101346.03
2018-01-24T03:59:41.734Z,101336.80
2018-01-24T04:02:07.501Z,101335.14
2018-01-24T04:04:33.275Z,101334.06
2018-01-24T04:06:59.125Z,101329.14
2018-01-24T04:09:24.898Z,101324.34
2018-01-24T04:11:50.678Z,101318.17
2018-01-24T04:14:16.485Z,101315.89
2018-01-24T04:16:42.249Z,101314.04
2018-01-24T04:19:09.045Z,101320.70
2018-01-24T04:21:34.825Z,101316.91
2018-01-24T04:24:00.601Z,101321.24
2018-01-24T04:26:26.377Z,101316.21
2018-01-24T04:28:52.154Z,101321.30
2018-01-24T04:31:17.930Z,101314.52
2018-01-24T04:33:43.704Z,101316.83
2018-01-24T04:36:09.519Z,101307.95
2018-01-24T04:38:35.320Z,101303.31
2018-01-24T04:41:01.095Z,101298.55
2018-01-24T04:43:26.881Z,101302.42
2018-01-24T04:45:52.894Z,101302.02
2018-01-24T04:48:18.669Z,101293.98
2018-01-24T04:50:44.472Z,101304.11
2018-01-24T04:53:10.285Z,101304.24
2018-01-24T04:55:36.192Z,101305.17
2018-01-24T04:58:02.160Z,101310.33
2018-01-24T05:00:27.962Z,101314.30
2018-01-24T05:02:53.761Z,101308.89
2018-01-24T05:05:19.549Z,101296.91
2018-01-24T05:07:45.468Z,101294.23
2018-01-24T05:10:11.358Z,101300.88
2018-01-24T05:12:37.172Z,101304.94
2018-01-24T05:15:02.978Z,101307.70
2018-01-24T05:17:28.772Z,101304.17
2018-01-24T05:19:54.605Z,101310.58
2018-01-24T05:22:20.403Z,101306.27
2018-01-24T05:24:46.193Z,101316.58
2018-01-24T05:27:12.079Z,101319.88
2018-01-24T05:29:37.870Z,101315.37
2018-01-24T05:32:03.726Z,101312.68
2018-01-24T05:34:29.695Z,101317.39
2018-01-24T05:36:55.513Z,101321.13
2018-01-24T05:39:21.338Z,101321.30
2018-01-24T05:41:47.157Z,101328.84
2018-01-24T05:44:12.945Z,101326.28
2018-01-24T05:46:38.777Z,101325.87
2018-01-24T05:49:04.598Z,101331.92
2018-01-24T05:51:30.462Z,101335.20
2018-01-24T05:53:56.286Z,101341.63
2018-01-24T05:56:22.113Z,101339.70
2018-01-24T05:58:47.960Z,101344.49
2018-01-24T06:01:13.748Z,101351.09
2018-01-24T06:03:39.585Z,101346.00
2018-01-24T06:06:05.370Z,101352.94
2018-01-24T06:08:31.185Z,101352.30
2018-01-24T06:10:56.969Z,101354.15
2018-01-24T06:13:22.783Z,101350.36
2018-01-24T06:15:48.565Z,101351.22
2018-01-24T06:18:14.350Z,101352.05
2018-01-24T06:20:40.269Z,101353.67
2018-01-24T06:23:06.049Z,101358.41
2018-01-24T06:25:31.995Z,101354.64
2018-01-24T06:27:57.792Z,101367.49
2018-01-24T06:30:30.714Z,101371.83
2018-01-24T06:32:56.505Z,101372.08
2018-01-24T06:35:22.446Z,101366.72
2018-01-24T06:37:48.240Z,101375.48
2018-01-24T06:40:14.033Z,101374.56
2018-01-24T06:42:39.833Z,101379.78
2018-01-24T06:45:05.910Z,101374.89
2018-01-24T06:47:31.697Z,101378.00
2018-01-24T06:49:57.477Z,101373.38
2018-01-24T06:52:23.254Z,101365.30
2018-01-24T06:54:49.030Z,101372.61
2018-01-24T06:57:14.841Z,101371.52
2018-01-24T06:59:40.650Z,101366.93
2018-01-24T07:02:06.430Z,101373.56
2018-01-24T07:04:32.337Z,101375.17
2018-01-24T07:06:58.153Z,101374.52
2018-01-24T07:09:23.934Z,101376.50
2018-01-24T07:11:49.774Z,101376.16
2018-01-24T07:14:21.781Z,101378.36
2018-01-24T07:16:47.602Z,101378.00
2018-01-24T07:19:13.377Z,101373.63
2018-01-24T07:21:39.153Z,101379.56
2018-01-24T07:24:04.933Z,101379.06
2018-01-24T07:26:30.717Z,101392.85
2018-01-24T07:28:56.494Z,101391.23
2018-01-24T07:31:22.317Z,101392.21
2018-01-24T07:33:48.279Z,101391.19
2018-01-24T07:36:14.054Z,101394.21
2018-01-24T07:38:39.910Z,101390.00
2018-01-24T07:41:05.684Z,101389.22
2018-01-24T07:43:31.496Z,101387.77
2018-01-24T07:45:57.282Z,101387.16
2018-01-24T07:48:23.089Z,101388.07
2018-01-24T07:50:49.104Z,101388.07
2018-01-24T07:53:14.895Z,101383.99
2018-01-24T07:55:40.673Z,101389.81
2018-01-24T07:58:06.453Z,101394.48
2018-01-24T08:00:32.251Z,101397.31
2018-01-24T08:02:58.163Z,101389.39
2018-01-24T08:05:23.966Z,101392.58
2018-01-24T08:07:49.789Z,101386.41
2018-01-24T08:10:15.585Z,101386.92
2018-01-24T08:12:41.428Z,101387.91
2018-01-24T08:15:07.310Z,101384.11
2018-01-24T08:17:33.127Z,101383.88
2018-01-24T08:19:59.001Z,101387.95
2018-01-24T08:22:24.778Z,101394.98
2018-01-24T08:24:50.649Z,101395.20
2018-01-24T08:27:16.468Z,101396.82
2018-01-24T08:29:42.249Z,101396.28
2018-01-24T08:32:08.033Z,101390.77
2018-01-24T08:34:34.930Z,101395.50
2018-01-24T08:37:02.070Z,101392.52
2018-01-24T08:39:27.875Z,101388.63
2018-01-24T08:41:53.722Z,101392.08
2018-01-24T08:44:19.597Z,101382.81
2018-01-24T08:46:45.489Z,101380.27
2018-01-24T08:49:13.368Z,101380.39
2018-01-24T08:51:39.310Z,101380.17
2018-01-24T08:54:05.229Z,101386.03
2018-01-24T08:56:32.090Z,101389.05
2018-01-24T08:58:57.950Z,101388.75
2018-01-24T09:08:58.130Z,101395.94
2018-01-24T09:11:24.102Z,101405.89
2018-01-24T09:13:49.885Z,101406.35
2018-01-24T09:16:15.741Z,101399.59
2018-01-24T09:18:41.561Z,101391.73
2018-01-24T09:21:07.354Z,101396.11
2018-01-24T09:23:33.305Z,101406.53
2018-01-24T09:25:59.142Z,101401.02
2018-01-24T09:28:25.002Z,101404.79
2018-01-24T09:30:50.806Z,101408.33
2018-01-24T09:33:16.749Z,101403.23
2018-01-24T09:35:42.568Z,101406.78
2018-01-24T09:38:08.429Z,101401.69
2018-01-24T09:40:34.225Z,101399.70
2018-01-24T09:43:00.016Z,101402.90
2018-01-24T09:45:25.949Z,101391.88
2018-01-24T09:47:51.725Z,101391.85
2018-01-24T09:50:17.577Z,101395.76
2018-01-24T09:52:43.356Z,101394.86
2018-01-24T09:55:09.141Z,101381.19
2018-01-24T09:57:34.929Z,101390.84
2018-01-24T10:00:00.717Z,101389.27
2018-01-24T10:02:26.505Z,101395.71
2018-01-24T10:04:52.320Z,101394.80
2018-01-24T10:07:18.214Z,101389.86
2018-01-24T10:09:43.998Z,101392.78
2018-01-24T10:12:09.778Z,101384.30
2018-01-24T10:14:35.558Z,101388.97
2018-01-24T10:17:01.341Z,101381.34
2018-01-24T10:19:27.121Z,101386.77
2018-01-24T10:21:52.903Z,101380.45
2018-01-24T10:24:18.688Z,101379.92
2018-01-24T10:26:44.571Z,101384.55
2018-01-24T10:29:10.354Z,101368.63
2018-01-24T10:31:36.136Z,101366.44
2018-01-24T10:34:01.949Z,101359.05
2018-01-24T10:36:28.037Z,101366.35
2018-01-24T10:38:53.825Z,101368.70
2018-01-24T10:41:19.610Z,101364.55
2018-01-24T10:43:45.402Z,101365.94
2018-01-24T10:46:11.175Z,101365.37
2018-01-24T10:48:37.000Z,101365.45
2018-01-24T10:51:02.776Z,101364.14
2018-01-24T10:53:28.616Z,101359.05
2018-01-24T10:55:54.438Z,101366.80
2018-01-24T10:58:20.217Z,101370.68
2018-01-24T11:00:46.134Z,101359.52
2018-01-24T11:03:11.957Z,101354.63
2018-01-24T11:05:37.736Z,101354.50
2018-01-24T11:08:03.511Z,101349.28
2018-01-24T11:10:29.289Z,101342.79
2018-01-24T11:12:55.105Z,101347.22
2018-01-24T11:15:20.967Z,101348.23
2018-01-24T11:17:46.750Z,101343.63
2018-01-24T11:20:12.564Z,101340.41
2018-01-24T11:22:38.457Z,101348.50
2018-01-24T11:25:04.361Z,101344.64
2018-01-24T11:27:30.297Z,101348.34
2018-01-24T11:29:56.070Z,101343.33
2018-01-24T11:32:21.874Z,101346.97
2018-01-24T11:34:47.734Z,101342.15
2018-01-24T11:37:13.510Z,101336.88
2018-01-24T11:39:39.514Z,101340.77
2018-01-24T11:42:05.293Z,101339.45
2018-01-24T11:44:31.085Z,101343.93
2018-01-24T11:46:56.897Z,101343.19
2018-01-24T11:49:22.674Z,101333.55
2018-01-24T11:51:48.486Z,101332.58
2018-01-24T11:54:14.267Z,101328.31
2018-01-24T11:56:40.093Z,101324.52
2018-01-24T11:59:05.872Z,101324.26
2018-01-24T12:01:31.707Z,101320.59
2018-01-24T12:03:57.557Z,101311.13
2018-01-24T12:06:23.337Z,101308.21
2018-01-24T12:08:49.131Z,101304.83
2018-01-24T12:11:14.906Z,101305.19
2018-01-24T12:13:40.838Z,101296.77
2018-01-24T12:16:06.622Z,101289.43
2018-01-24T12:18:32.524Z,101288.59
2018-01-24T12:20:58.333Z,101280.27
2018-01-24T12:23:24.249Z,101277.98
2018-01-24T12:25:50.034Z,101274.45
2018-01-24T12:28:15.965Z,101273.72
2018-01-24T12:30:41.826Z,101269.22
2018-01-24T12:33:07.702Z,101269.32
2018-01-24T12:35:33.480Z,101267.30
2018-01-24T12:37:59.341Z,101258.28
2018-01-24T12:40:25.153Z,101266.92
2018-01-24T12:42:50.935Z,101250.64
2018-01-24T12:45:16.749Z,101256.62
2018-01-24T12:47:42.574Z,101255.55
2018-01-24T12:50:08.355Z,101245.89
2018-01-24T12:52:34.162Z,101253.33
2018-01-24T12:54:59.941Z,101248.48
2018-01-24T12:57:25.761Z,101245.47
2018-01-24T12:59:51.541Z,101235.43
2018-01-24T13:02:17.367Z,101239.78
2018-01-24T13:04:43.150Z,101238.55
2018-01-24T13:07:08.977Z,101235.59
2018-01-24T13:09:34.749Z,101228.34
2018-01-24T13:12:00.524Z,101225.03
2018-01-24T13:14:26.315Z,101220.64
2018-01-24T13:16:52.138Z,101231.59
2018-01-24T13:19:17.917Z,101222.78
2018-01-24T13:21:43.697Z,101219.22
2018-01-24T13:24:10.541Z,101215.20
2018-01-24T13:26:36.317Z,101215.06
2018-01-24T13:29:02.137Z,101216.03
2018-01-24T13:31:27.913Z,101209.42
2018-01-24T13:33:53.695Z,101205.63
2018-01-24T13:36:19.647Z,101198.58
2018-01-24T13:38:45.438Z,101199.94
2018-01-24T13:41:11.253Z,101211.25
2018-01-24T13:43:37.033Z,101205.82
2018-01-24T13:46:03.029Z,101201.23
2018-01-24T13:48:28.841Z,101201.83
2018-01-24T13:50:54.659Z,101195.83
2018-01-24T13:53:20.441Z,101195.19
2018-01-24T13:55:46.254Z,101186.16
2018-01-24T13:58:12.037Z,101189.64
2018-01-24T14:00:37.865Z,101186.40
2018-01-24T14:03:03.682Z,101187.00
2018-01-24T14:05:29.457Z,101190.48
2018-01-24T14:07:55.437Z,101180.94
2018-01-24T14:10:21.216Z,101179.40
2018-01-24T14:12:47.065Z,101163.20
2018-01-24T14:15:12.842Z,101173.64
2018-01-24T14:17:38.662Z,101170.31
2018-01-24T14:20:04.445Z,101158.02
2018-01-24T14:22:30.225Z,101162.41
2018-01-24T14:24:56.046Z,101155.13
2018-01-24T14:27:21.842Z,101152.73
2018-01-24T14:29:47.657Z,101156.81
2018-01-24T14:32:14.404Z,101149.58
2018-01-24T14:34:40.240Z,101144.60
2018-01-24T14:37:06.047Z,101147.66
2018-01-24T14:39:32.090Z,101137.97
2018-01-24T14:41:57.925Z,101144.42
2018-01-24T14:44:23.738Z,101138.09
2018-01-24T14:46:49.607Z,101128.33
2018-01-24T14:49:15.401Z,101129.18
2018-01-24T14:51:41.216Z,101132.33
2018-01-24T14:54:06.993Z,101123.48
2018-01-24T14:56:32.914Z,101124.57
2018-01-24T14:58:58.707Z,101120.73
2018-01-24T15:01:24.877Z,101116.86
2018-01-24T15:03:50.700Z,101112.95
2018-01-24T15:06:16.496Z,101102.88
2018-01-24T15:08:42.423Z,101103.61
2018-01-24T15:11:08.248Z,101097.34
2018-01-24T15:13:34.170Z,101098.55
2018-01-24T15:15:59.893Z,101096.12
2018-01-24T15:18:25.805Z,101091.84
2018-01-24T15:20:51.629Z,101096.42
2018-01-24T15:23:17.684Z,101092.50
2018-01-24T15:25:43.513Z,101094.96
2018-01-24T15:28:09.382Z,101094.90
2018-01-24T15:30:35.202Z,101079.09
2018-01-24T15:33:00.990Z,101075.70
2018-01-24T15:35:26.806Z,101074.59
2018-01-24T15:37:52.598Z,101067.90
2018-01-24T15:40:18.384Z,101063.45
2018-01-24T15:42:44.226Z,101058.52
2018-01-24T15:45:10.006Z,101059.97
2018-01-24T15:47:35.952Z,101056.07
2018-01-24T15:50:01.747Z,101058.56
2018-01-24T15:52:27.691Z,101047.22
2018-01-24T15:54:53.470Z,101045.38
2018-01-24T15:57:19.368Z,101041.36
2018-01-24T15:59:45.414Z,101051.63
2018-01-24T16:02:11.245Z,101041.78
2018-01-24T16:04:37.189Z,101045.99
2018-01-24T16:07:02.999Z,101035.89
2018-01-24T16:09:28.785Z,101028.98
2018-01-24T16:11:54.598Z,101032.55
2018-01-24T16:14:20.434Z,101031.73
2018-01-24T16:16:46.209Z,101032.83
2018-01-24T16:19:12.042Z,101016.36
2018-01-24T16:21:37.898Z,101012.83
2018-01-24T16:24:03.689Z,101015.61
2018-01-24T16:26:29.472Z,101013.37
2018-01-24T16:28:55.254Z,101017.74
2018-01-24T16:31:21.090Z,101006.98
2018-01-24T16:33:46.888Z,101005.30
2018-01-24T16:36:12.703Z,101005.58
2018-01-24T16:38:38.478Z,101004.58
2018-01-24T16:41:04.327Z,100993.96
2018-01-24T16:43:30.117Z,100999.70
2018-01-24T16:45:56.114Z,100997.44
2018-01-24T16:48:22.046Z,100988.38
2018-01-24T16:50:47.828Z,100995.55
2018-01-24T16:53:13.686Z,100990.45
2018-01-24T16:55:39.610Z,100992.33
2018-01-24T16:58:05.426Z,100992.23
2018-01-24T17:00:31.216Z,100986.97
2018-01-24T17:02:57.129Z,100996.14
2018-01-24T17:05:23.050Z,100978.56
2018-01-24T17:07:48.833Z,100984.27
2018-01-24T17:10:14.625Z,100984.59
2018-01-24T17:12:40.442Z,100985.53
2018-01-24T17:15:06.286Z,100983.39
2018-01-24T17:17:32.105Z,100982.63
2018-01-24T17:19:57.917Z,100984.17
2018-01-24T17:22:23.814Z,100979.37
2018-01-24T17:24:49.593Z,100977.70
2018-01-24T17:27:15.527Z,100974.86
2018-01-24T17:29:41.306Z,100977.00
2018-01-24T17:32:07.081Z,100977.42
2018-01-24T17:34:32.901Z,100976.58
2018-01-24T17:36:58.778Z,100979.48
2018-01-24T17:39:24.589Z,100979.69
2018-01-24T17:41:50.442Z,100981.09
2018-01-24T17:44:16.222Z,100976.56
2018-01-24T17:46:42.017Z,100972.95
2018-01-24T17:49:07.807Z,100972.72
2018-01-24T17:51:33.598Z,100975.42
2018-01-24T17:53:59.383Z,100970.50
2018-01-24T17:56:25.202Z,100961.54
2018-01-24T17:58:51.020Z,100961.15
2018-01-24T18:01:16.845Z,100958.56
2018-01-24T18:03:42.672Z,100959.26
2018-01-24T18:06:08.478Z,100957.73
2018-01-24T18:08:34.294Z,100957.53
2018-01-24T18:11:00.098Z,100955.06
2018-01-24T18:13:25.959Z,100959.36
2018-01-24T18:15:51.737Z,100956.47
2018-01-24T18:18:17.549Z,100965.52
2018-01-24T18:20:43.426Z,100958.02
2018-01-24T18:23:09.234Z,100951.41
2018-01-24T18:25:35.029Z,100945.66
2018-01-24T18:28:00.842Z,100944.74
2018-01-24T18:30:26.658Z,100949.42
2018-01-24T18:32:52.430Z,100945.07
2018-01-24T18:35:18.246Z,100942.31
2018-01-24T18:37:44.026Z,100946.48
2018-01-24T18:40:09.837Z,100936.13
2018-01-24T18:42:35.614Z,100938.23
2018-01-24T18:45:01.407Z,100935.45
2018-01-24T18:47:27.199Z,100939.75
2018-01-24T18:49:53.026Z,100934.89
2018-01-24T18:52:18.834Z,100942.85
2018-01-24T18:54:44.610Z,100937.19
2018-01-24T18:57:10.443Z,100935.02
2018-01-24T18:59:37.064Z,100932.37
2018-01-24T19:02:02.841Z,100929.31
2018-01-24T19:04:28.656Z,100935.23
2018-01-24T19:06:54.434Z,100929.59
2018-01-24T19:09:20.258Z,100929.27
2018-01-24T19:11:46.034Z,100931.92
2018-01-24T19:14:11.896Z,100929.08
2018-01-24T19:16:37.650Z,100921.78
2018-01-24T19:19:03.585Z,100918.04
2018-01-24T19:21:29.478Z,100921.06
2018-01-24T19:23:55.271Z,100923.38
2018-01-24T19:26:21.066Z,100936.30
2018-01-24T19:28:46.937Z,100939.97
2018-01-24T19:31:12.754Z,100941.55
2018-01-24T19:33:38.565Z,100946.08
2018-01-24T19:36:04.479Z,100947.31
2018-01-24T19:38:30.471Z,100947.69
2018-01-24T19:40:56.252Z,100943.17
2018-01-24T19:43:22.085Z,100938.37
2018-01-24T19:45:48.264Z,100933.95
2018-01-24T19:48:14.461Z,100928.94
2018-01-24T19:50:40.280Z,100928.66
2018-01-24T19:53:06.105Z,100934.19
2018-01-24T19:55:31.921Z,100932.81
2018-01-24T19:57:57.697Z,100931.22
2018-01-24T20:00:23.521Z,100922.38
2018-01-24T20:02:49.300Z,100928.23
2018-01-24T20:05:15.080Z,100924.97
2018-01-24T20:07:40.858Z,100906.30
2018-01-24T20:10:06.642Z,100901.63
2018-01-24T20:12:32.421Z,100894.50
2018-01-24T20:14:58.243Z,100888.58
2018-01-24T20:17:24.021Z,100889.09
2018-01-24T20:19:49.799Z,100882.55
2018-01-24T20:22:15.585Z,100880.11
2018-01-24T20:24:41.369Z,100881.07
2018-01-24T20:27:07.198Z,100884.56
2018-01-24T20:29:33.026Z,100877.53
2018-01-24T20:31:58.814Z,100879.78
2018-01-24T20:34:24.661Z,100879.27
2018-01-24T20:36:50.446Z,100883.56
2018-01-24T20:39:16.262Z,100893.98
2018-01-24T20:41:42.176Z,100897.37
2018-01-24T20:44:08.008Z,100891.70
2018-01-24T20:46:33.845Z,100888.55
2018-01-24T20:48:59.625Z,100888.48
2018-01-24T20:51:25.594Z,100892.95
2018-01-24T20:53:51.383Z,100893.41
2018-01-24T20:56:17.194Z,100887.18
2018-01-24T20:58:42.965Z,100878.14
2018-01-24T21:01:08.790Z,100882.51
2018-01-24T21:03:34.714Z,100877.52
2018-01-24T21:06:00.526Z,100885.23
2018-01-24T21:08:26.394Z,100881.32
2018-01-24T21:10:52.217Z,100882.59
2018-01-24T21:13:18.170Z,100873.27
2018-01-24T21:15:44.001Z,100878.17
2018-01-24T21:18:09.917Z,100874.24
2018-01-24T21:20:35.714Z,100872.33
2018-01-24T21:23:01.528Z,100869.54
2018-01-24T21:25:27.498Z,100863.69
2018-01-24T21:27:53.314Z,100867.31
2018-01-24T21:30:21.062Z,100866.92
2018-01-24T21:32:53.010Z,100862.00
2018-01-24T21:35:25.098Z,100855.66
2018-01-24T21:37:50.880Z,100855.94
2018-01-24T21:40:16.697Z,100858.23
2018-01-24T21:42:42.470Z,100858.18
2018-01-24T21:45:08.299Z,100855.87
2018-01-24T21:47:34.085Z,100856.70
2018-01-24T21:49:59.862Z,100862.76
2018-01-24T21:52:25.692Z,100851.24
2018-01-24T21:54:51.470Z,100845.61
2018-01-24T21:57:17.243Z,100842.39
2018-01-24T21:59:43.025Z,100844.53
2018-01-24T22:02:08.797Z,100837.64
2018-01-24T22:04:34.609Z,100838.10
2018-01-24T22:07:00.401Z,100832.23
2018-01-24T22:09:26.177Z,100834.39
2018-01-24T22:11:52.035Z,100828.23
2018-01-24T22:14:17.813Z,100828.58
2018-01-24T22:16:43.605Z,100826.43
2018-01-24T22:19:09.377Z,100826.10
2018-01-24T22:21:39.181Z,100823.33
2018-01-24T22:24:05.230Z,100815.20
2018-01-24T22:26:31.158Z,100810.39
2018-01-24T22:28:57.085Z,100802.14
2018-01-24T22:31:22.905Z,100799.94
2018-01-24T22:33:48.786Z,100790.59
2018-01-24T22:36:14.702Z,100790.64
2018-01-24T22:38:40.617Z,100783.14
2018-01-24T22:41:06.529Z,100784.56
2018-01-24T22:43:32.338Z,100786.17
2018-01-24T22:45:58.170Z,100784.04
2018-01-24T22:48:24.035Z,100781.14
2018-01-24T22:50:49.845Z,100773.70
2018-01-24T22:53:15.657Z,100775.77
2018-01-24T22:55:41.451Z,100776.61
2018-01-24T22:58:07.261Z,100778.22
2018-01-24T23:00:33.101Z,100784.94
2018-01-24T23:02:58.922Z,100779.83
2018-01-24T23:05:24.741Z,100780.98
2018-01-24T23:07:50.556Z,100776.89
2018-01-24T23:10:16.777Z,100779.34
2018-01-24T23:12:42.549Z,100785.36
2018-01-24T23:15:08.398Z,100780.09
2018-01-24T23:20:06.693Z,100782.23
2018-01-24T23:22:32.533Z,100777.28
2018-01-24T23:24:58.377Z,100766.72
2018-01-24T23:27:24.195Z,100764.66
2018-01-24T23:29:50.045Z,100766.88
2018-01-24T23:32:15.893Z,100757.97
2018-01-24T23:34:41.713Z,100758.65
2018-01-24T23:37:07.692Z,100759.71
2018-01-24T23:39:33.498Z,100756.33
2018-01-24T23:41:59.393Z,100744.94
2018-01-24T23:44:25.249Z,100755.02
2018-01-24T23:46:51.060Z,100741.53
2018-01-24T23:49:16.910Z,100739.78
2018-01-24T23:51:42.762Z,100724.19
2018-01-24T23:54:08.633Z,100736.38
2018-01-24T23:56:34.446Z,100736.34
2018-01-24T23:59:00.258Z,100719.61
